sensor_id;sensor_type;location;lat;lon;timestamp;P1;durP1;ratioP1;P2;durP2;ratioP2
2840;SDS011;53423;49.224;12.074;2022-09-20T00:01:03;2.87;;;2.50;;
2840;SDS011;53423;49.224;12.074;2022-09-20T00:03:33;4.47;;;2.60;;
2840;SDS011;53423;49.224;12.074;2022-09-20T00:06:02;4.43;;;2.50;;
2840;SDS011;53423;49.224;12.074;2022-09-20T00:08:31;2.77;;;2.53;;
2840;SDS011;53423;49.224;12.074;2022-09-20T00:11:00;2.60;;;2.40;;
2840;SDS011;53423;49.224;12.074;2022-09-20T00:13:29;2.97;;;2.57;;
2840;SDS011;53423;49.224;12.074;2022-09-20T00:15:57;2.90;;;2.30;;
2840;SDS011;53423;49.224;12.074;2022-09-20T00:18:26;3.80;;;2.70;;
2840;SDS011;53423;49.224;12.074;2022-09-20T00:20:53;3.40;;;3.10;;
2840;SDS011;53423;49.224;12.074;2022-09-20T00:23:21;3.07;;;2.70;;
2840;SDS011;53423;49.224;12.074;2022-09-20T00:25:55;3.33;;;3.03;;
2840;SDS011;53423;49.224;12.074;2022-09-20T00:28:24;3.30;;;2.70;;
2840;SDS011;53423;49.224;12.074;2022-09-20T00:30:54;3.40;;;3.10;;
2840;SDS011;53423;49.224;12.074;2022-09-20T00:33:23;3.53;;;2.90;;
2840;SDS011;53423;49.224;12.074;2022-09-20T00:36:12;2.80;;;2.60;;
2840;SDS011;53423;49.224;12.074;2022-09-20T00:38:39;3.50;;;3.20;;
2840;SDS011;53423;49.224;12.074;2022-09-20T00:41:07;4.03;;;3.13;;
2840;SDS011;53423;49.224;12.074;2022-09-20T00:43:36;3.23;;;2.90;;
2840;SDS011;53423;49.224;12.074;2022-09-20T00:46:10;3.10;;;2.80;;
2840;SDS011;53423;49.224;12.074;2022-09-20T00:48:47;3.10;;;2.77;;
2840;SDS011;53423;49.224;12.074;2022-09-20T00:51:17;3.77;;;2.87;;
2840;SDS011;53423;49.224;12.074;2022-09-20T00:53:50;3.30;;;2.80;;
2840;SDS011;53423;49.224;12.074;2022-09-20T00:56:18;3.50;;;2.90;;
2840;SDS011;53423;49.224;12.074;2022-09-20T00:58:53;5.23;;;3.00;;
2840;SDS011;53423;49.224;12.074;2022-09-20T01:01:28;6.57;;;3.00;;
2840;SDS011;53423;49.224;12.074;2022-09-20T01:03:56;2.73;;;2.53;;
2840;SDS011;53423;49.224;12.074;2022-09-20T01:06:24;3.33;;;2.50;;
2840;SDS011;53423;49.224;12.074;2022-09-20T01:08:52;2.70;;;2.50;;
2840;SDS011;53423;49.224;12.074;2022-09-20T01:11:23;3.70;;;2.47;;
2840;SDS011;53423;49.224;12.074;2022-09-20T01:13:52;3.60;;;2.73;;
2840;SDS011;53423;49.224;12.074;2022-09-20T01:16:20;3.27;;;2.97;;
2840;SDS011;53423;49.224;12.074;2022-09-20T01:18:50;3.77;;;2.70;;
2840;SDS011;53423;49.224;12.074;2022-09-20T01:21:19;2.60;;;2.40;;
2840;SDS011;53423;49.224;12.074;2022-09-20T01:23:50;4.27;;;2.93;;
2840;SDS011;53423;49.224;12.074;2022-09-20T01:26:28;3.90;;;2.50;;
2840;SDS011;53423;49.224;12.074;2022-09-20T01:29:17;5.83;;;2.90;;
2840;SDS011;53423;49.224;12.074;2022-09-20T01:32:01;3.40;;;2.70;;
2840;SDS011;53423;49.224;12.074;2022-09-20T01:34:33;2.60;;;2.40;;
2840;SDS011;53423;49.224;12.074;2022-09-20T01:37:04;3.77;;;2.73;;
2840;SDS011;53423;49.224;12.074;2022-09-20T01:39:38;3.63;;;2.43;;
2840;SDS011;53423;49.224;12.074;2022-09-20T01:42:14;3.53;;;2.60;;
2840;SDS011;53423;49.224;12.074;2022-09-20T01:44:47;3.77;;;2.50;;
2840;SDS011;53423;49.224;12.074;2022-09-20T01:47:24;4.10;;;2.47;;
2840;SDS011;53423;49.224;12.074;2022-09-20T01:50:02;2.80;;;2.33;;
2840;SDS011;53423;49.224;12.074;2022-09-20T01:52:43;2.80;;;2.30;;
2840;SDS011;53423;49.224;12.074;2022-09-20T01:58:51;2.97;;;2.30;;
2840;SDS011;53423;49.224;12.074;2022-09-20T02:01:56;2.73;;;2.20;;
2840;SDS011;53423;49.224;12.074;2022-09-20T02:04:38;3.20;;;2.50;;
2840;SDS011;53423;49.224;12.074;2022-09-20T02:10:52;3.00;;;2.30;;
2840;SDS011;53423;49.224;12.074;2022-09-20T02:13:30;3.20;;;2.23;;
2840;SDS011;53423;49.224;12.074;2022-09-20T02:16:18;3.20;;;2.20;;
2840;SDS011;53423;49.224;12.074;2022-09-20T02:19:05;3.43;;;2.40;;
2840;SDS011;53423;49.224;12.074;2022-09-20T02:21:52;3.73;;;2.43;;
2840;SDS011;53423;49.224;12.074;2022-09-20T02:24:37;4.43;;;2.40;;
2840;SDS011;53423;49.224;12.074;2022-09-20T02:27:12;2.50;;;2.20;;
2840;SDS011;53423;49.224;12.074;2022-09-20T02:29:52;3.77;;;2.50;;
2840;SDS011;53423;49.224;12.074;2022-09-20T02:32:35;4.13;;;2.30;;
2840;SDS011;53423;49.224;12.074;2022-09-20T02:35:26;4.93;;;2.80;;
2840;SDS011;53423;49.224;12.074;2022-09-20T02:38:06;3.60;;;2.37;;
2840;SDS011;53423;49.224;12.074;2022-09-20T02:43:49;4.07;;;2.63;;
2840;SDS011;53423;49.224;12.074;2022-09-20T02:46:25;3.30;;;2.50;;
2840;SDS011;53423;49.224;12.074;2022-09-20T02:48:59;3.17;;;2.50;;
2840;SDS011;53423;49.224;12.074;2022-09-20T02:51:34;3.00;;;2.40;;
2840;SDS011;53423;49.224;12.074;2022-09-20T02:54:11;3.43;;;2.60;;
2840;SDS011;53423;49.224;12.074;2022-09-20T02:56:50;2.30;;;2.10;;
2840;SDS011;53423;49.224;12.074;2022-09-20T02:59:24;2.53;;;2.30;;
2840;SDS011;53423;49.224;12.074;2022-09-20T03:02:02;3.17;;;2.40;;
2840;SDS011;53423;49.224;12.074;2022-09-20T03:04:38;4.23;;;2.60;;
2840;SDS011;53423;49.224;12.074;2022-09-20T03:07:24;4.13;;;2.40;;
2840;SDS011;53423;49.224;12.074;2022-09-20T03:10:05;3.53;;;2.03;;
2840;SDS011;53423;49.224;12.074;2022-09-20T03:12:43;4.30;;;2.53;;
2840;SDS011;53423;49.224;12.074;2022-09-20T03:15:23;4.53;;;2.23;;
2840;SDS011;53423;49.224;12.074;2022-09-20T03:18:01;3.30;;;2.43;;
2840;SDS011;53423;49.224;12.074;2022-09-20T03:20:35;3.50;;;2.63;;
2840;SDS011;53423;49.224;12.074;2022-09-20T03:23:18;4.53;;;2.57;;
2840;SDS011;53423;49.224;12.074;2022-09-20T03:26:04;3.00;;;2.30;;
2840;SDS011;53423;49.224;12.074;2022-09-20T03:28:48;5.93;;;2.50;;
2840;SDS011;53423;49.224;12.074;2022-09-20T03:31:26;2.47;;;2.27;;
2840;SDS011;53423;49.224;12.074;2022-09-20T03:34:08;3.67;;;2.50;;
2840;SDS011;53423;49.224;12.074;2022-09-20T03:36:52;4.37;;;2.60;;
2840;SDS011;53423;49.224;12.074;2022-09-20T03:39:39;3.40;;;2.50;;
2840;SDS011;53423;49.224;12.074;2022-09-20T03:42:28;2.37;;;2.20;;
2840;SDS011;53423;49.224;12.074;2022-09-20T03:45:13;4.73;;;2.77;;
2840;SDS011;53423;49.224;12.074;2022-09-20T03:48:02;2.93;;;2.40;;
2840;SDS011;53423;49.224;12.074;2022-09-20T03:50:44;3.57;;;2.13;;
2840;SDS011;53423;49.224;12.074;2022-09-20T03:56:17;3.80;;;2.37;;
2840;SDS011;53423;49.224;12.074;2022-09-20T03:58:59;4.87;;;2.50;;
2840;SDS011;53423;49.224;12.074;2022-09-20T04:01:53;4.03;;;2.43;;
2840;SDS011;53423;49.224;12.074;2022-09-20T04:04:35;3.60;;;2.30;;
2840;SDS011;53423;49.224;12.074;2022-09-20T04:07:12;3.43;;;2.43;;
2840;SDS011;53423;49.224;12.074;2022-09-20T04:09:50;3.80;;;2.40;;
2840;SDS011;53423;49.224;12.074;2022-09-20T04:12:31;4.50;;;2.63;;
2840;SDS011;53423;49.224;12.074;2022-09-20T04:15:14;6.00;;;2.30;;
2840;SDS011;53423;49.224;12.074;2022-09-20T04:17:52;3.03;;;2.10;;
2840;SDS011;53423;49.224;12.074;2022-09-20T04:20:29;3.67;;;2.33;;
2840;SDS011;53423;49.224;12.074;2022-09-20T04:23:07;4.20;;;2.37;;
2840;SDS011;53423;49.224;12.074;2022-09-20T04:25:43;2.43;;;2.23;;
2840;SDS011;53423;49.224;12.074;2022-09-20T04:28:16;2.80;;;2.30;;
2840;SDS011;53423;49.224;12.074;2022-09-20T04:30:48;3.57;;;2.30;;
2840;SDS011;53423;49.224;12.074;2022-09-20T04:33:23;5.53;;;2.53;;
2840;SDS011;53423;49.224;12.074;2022-09-20T04:35:56;3.60;;;2.30;;
2840;SDS011;53423;49.224;12.074;2022-09-20T04:38:51;2.67;;;2.20;;
2840;SDS011;53423;49.224;12.074;2022-09-20T04:41:41;2.30;;;2.10;;
2840;SDS011;53423;49.224;12.074;2022-09-20T04:47:44;4.33;;;2.60;;
2840;SDS011;53423;49.224;12.074;2022-09-20T04:54:18;2.87;;;2.60;;
2840;SDS011;53423;49.224;12.074;2022-09-20T05:00:08;4.37;;;2.60;;
2840;SDS011;53423;49.224;12.074;2022-09-20T05:05:52;2.60;;;2.40;;
2840;SDS011;53423;49.224;12.074;2022-09-20T05:08:40;2.47;;;2.27;;
2840;SDS011;53423;49.224;12.074;2022-09-20T05:11:53;7.77;;;2.57;;
2840;SDS011;53423;49.224;12.074;2022-09-20T05:14:35;6.57;;;3.27;;
2840;SDS011;53423;49.224;12.074;2022-09-20T05:17:18;5.17;;;4.17;;
2840;SDS011;53423;49.224;12.074;2022-09-20T05:20:00;5.27;;;3.67;;
2840;SDS011;53423;49.224;12.074;2022-09-20T05:25:57;4.80;;;2.73;;
2840;SDS011;53423;49.224;12.074;2022-09-20T05:28:34;3.30;;;2.70;;
2840;SDS011;53423;49.224;12.074;2022-09-20T05:31:10;4.50;;;2.43;;
2840;SDS011;53423;49.224;12.074;2022-09-20T05:33:45;4.87;;;3.13;;
2840;SDS011;53423;49.224;12.074;2022-09-20T05:36:22;2.80;;;2.17;;
2840;SDS011;53423;49.224;12.074;2022-09-20T05:39:01;2.80;;;2.50;;
2840;SDS011;53423;49.224;12.074;2022-09-20T05:41:44;2.65;;;2.20;;
2840;SDS011;53423;49.224;12.074;2022-09-20T05:44:23;4.73;;;2.80;;
2840;SDS011;53423;49.224;12.074;2022-09-20T05:46:58;3.27;;;2.50;;
2840;SDS011;53423;49.224;12.074;2022-09-20T05:49:40;4.10;;;2.40;;
2840;SDS011;53423;49.224;12.074;2022-09-20T05:52:23;3.70;;;2.30;;
2840;SDS011;53423;49.224;12.074;2022-09-20T05:55:10;2.73;;;2.30;;
2840;SDS011;53423;49.224;12.074;2022-09-20T05:57:51;5.00;;;2.40;;
2840;SDS011;53423;49.224;12.074;2022-09-20T06:00:28;3.03;;;2.00;;
2840;SDS011;53423;49.224;12.074;2022-09-20T06:03:03;3.53;;;2.60;;
2840;SDS011;53423;49.224;12.074;2022-09-20T06:05:40;4.33;;;2.20;;
2840;SDS011;53423;49.224;12.074;2022-09-20T06:08:37;3.83;;;2.13;;
2840;SDS011;53423;49.224;12.074;2022-09-20T06:11:27;3.73;;;2.30;;
2840;SDS011;53423;49.224;12.074;2022-09-20T06:14:13;4.33;;;1.87;;
2840;SDS011;53423;49.224;12.074;2022-09-20T06:16:52;2.53;;;2.00;;
2840;SDS011;53423;49.224;12.074;2022-09-20T06:19:32;3.77;;;2.03;;
2840;SDS011;53423;49.224;12.074;2022-09-20T06:22:10;2.77;;;2.23;;
2840;SDS011;53423;49.224;12.074;2022-09-20T06:24:43;5.40;;;2.10;;
2840;SDS011;53423;49.224;12.074;2022-09-20T06:27:17;3.27;;;2.23;;
2840;SDS011;53423;49.224;12.074;2022-09-20T06:29:52;2.87;;;2.20;;
2840;SDS011;53423;49.224;12.074;2022-09-20T06:32:24;3.03;;;2.40;;
2840;SDS011;53423;49.224;12.074;2022-09-20T06:34:52;3.47;;;1.93;;
2840;SDS011;53423;49.224;12.074;2022-09-20T06:37:26;2.97;;;1.80;;
2840;SDS011;53423;49.224;12.074;2022-09-20T06:40:27;4.70;;;1.77;;
2840;SDS011;53423;49.224;12.074;2022-09-20T06:43:16;3.07;;;1.70;;
2840;SDS011;53423;49.224;12.074;2022-09-20T06:45:44;2.80;;;1.60;;
2840;SDS011;53423;49.224;12.074;2022-09-20T06:48:13;3.40;;;1.50;;
2840;SDS011;53423;49.224;12.074;2022-09-20T06:50:41;3.20;;;1.63;;
2840;SDS011;53423;49.224;12.074;2022-09-20T06:53:14;2.73;;;1.67;;
2840;SDS011;53423;49.224;12.074;2022-09-20T06:55:44;4.53;;;1.93;;
2840;SDS011;53423;49.224;12.074;2022-09-20T06:58:13;3.87;;;1.73;;
2840;SDS011;53423;49.224;12.074;2022-09-20T07:00:40;3.27;;;1.33;;
2840;SDS011;53423;49.224;12.074;2022-09-20T07:03:08;5.30;;;1.70;;
2840;SDS011;53423;49.224;12.074;2022-09-20T07:05:37;3.97;;;1.40;;
2840;SDS011;53423;49.224;12.074;2022-09-20T07:08:05;3.70;;;1.70;;
2840;SDS011;53423;49.224;12.074;2022-09-20T07:10:35;3.63;;;1.43;;
2840;SDS011;53423;49.224;12.074;2022-09-20T07:13:03;4.33;;;1.40;;
2840;SDS011;53423;49.224;12.074;2022-09-20T07:15:32;2.73;;;1.20;;
2840;SDS011;53423;49.224;12.074;2022-09-20T07:18:00;4.83;;;1.40;;
2840;SDS011;53423;49.224;12.074;2022-09-20T07:20:28;4.27;;;1.97;;
2840;SDS011;53423;49.224;12.074;2022-09-20T07:22:56;2.60;;;1.37;;
2840;SDS011;53423;49.224;12.074;2022-09-20T07:25:24;4.03;;;2.03;;
2840;SDS011;53423;49.224;12.074;2022-09-20T07:27:54;4.93;;;2.10;;
2840;SDS011;53423;49.224;12.074;2022-09-20T07:30:22;3.77;;;1.90;;
2840;SDS011;53423;49.224;12.074;2022-09-20T07:32:50;4.90;;;1.77;;
2840;SDS011;53423;49.224;12.074;2022-09-20T07:35:18;4.20;;;1.50;;
2840;SDS011;53423;49.224;12.074;2022-09-20T07:37:46;2.73;;;1.60;;
2840;SDS011;53423;49.224;12.074;2022-09-20T07:40:14;3.90;;;1.70;;
2840;SDS011;53423;49.224;12.074;2022-09-20T07:42:42;3.77;;;1.77;;
2840;SDS011;53423;49.224;12.074;2022-09-20T07:45:12;4.93;;;1.60;;
2840;SDS011;53423;49.224;12.074;2022-09-20T07:47:40;4.80;;;1.70;;
2840;SDS011;53423;49.224;12.074;2022-09-20T07:50:10;2.53;;;1.30;;
2840;SDS011;53423;49.224;12.074;2022-09-20T07:52:38;4.27;;;1.60;;
2840;SDS011;53423;49.224;12.074;2022-09-20T07:55:06;5.23;;;1.87;;
2840;SDS011;53423;49.224;12.074;2022-09-20T07:57:35;3.60;;;1.47;;
2840;SDS011;53423;49.224;12.074;2022-09-20T08:00:05;2.20;;;1.40;;
2840;SDS011;53423;49.224;12.074;2022-09-20T08:02:35;3.23;;;1.73;;
2840;SDS011;53423;49.224;12.074;2022-09-20T08:05:03;4.23;;;1.63;;
2840;SDS011;53423;49.224;12.074;2022-09-20T08:07:31;4.50;;;1.53;;
2840;SDS011;53423;49.224;12.074;2022-09-20T08:09:59;5.93;;;2.07;;
2840;SDS011;53423;49.224;12.074;2022-09-20T08:12:27;3.90;;;1.80;;
2840;SDS011;53423;49.224;12.074;2022-09-20T08:15:15;4.20;;;1.80;;
2840;SDS011;53423;49.224;12.074;2022-09-20T08:17:46;3.57;;;1.30;;
2840;SDS011;53423;49.224;12.074;2022-09-20T08:20:14;5.43;;;1.90;;
2840;SDS011;53423;49.224;12.074;2022-09-20T08:22:43;4.43;;;1.43;;
2840;SDS011;53423;49.224;12.074;2022-09-20T08:25:31;2.77;;;1.47;;
2840;SDS011;53423;49.224;12.074;2022-09-20T08:27:59;2.60;;;1.40;;
2840;SDS011;53423;49.224;12.074;2022-09-20T08:30:27;3.07;;;1.53;;
2840;SDS011;53423;49.224;12.074;2022-09-20T08:32:56;6.90;;;1.73;;
2840;SDS011;53423;49.224;12.074;2022-09-20T08:35:24;3.13;;;0.90;;
2840;SDS011;53423;49.224;12.074;2022-09-20T08:37:53;3.67;;;1.10;;
2840;SDS011;53423;49.224;12.074;2022-09-20T08:40:22;2.70;;;1.20;;
2840;SDS011;53423;49.224;12.074;2022-09-20T08:42:51;3.80;;;1.10;;
2840;SDS011;53423;49.224;12.074;2022-09-20T08:45:20;1.53;;;1.00;;
2840;SDS011;53423;49.224;12.074;2022-09-20T08:48:09;3.33;;;1.20;;
2840;SDS011;53423;49.224;12.074;2022-09-20T08:50:41;3.57;;;1.60;;
2840;SDS011;53423;49.224;12.074;2022-09-20T08:53:10;3.53;;;1.17;;
2840;SDS011;53423;49.224;12.074;2022-09-20T08:55:46;4.77;;;1.97;;
2840;SDS011;53423;49.224;12.074;2022-09-20T08:58:14;5.17;;;2.90;;
2840;SDS011;53423;49.224;12.074;2022-09-20T09:00:43;3.80;;;1.63;;
2840;SDS011;53423;49.224;12.074;2022-09-20T09:03:14;2.63;;;1.27;;
2840;SDS011;53423;49.224;12.074;2022-09-20T09:05:44;2.97;;;1.70;;
2840;SDS011;53423;49.224;12.074;2022-09-20T09:08:14;4.50;;;1.57;;
2840;SDS011;53423;49.224;12.074;2022-09-20T09:10:44;1.80;;;1.13;;
2840;SDS011;53423;49.224;12.074;2022-09-20T09:13:20;4.07;;;1.60;;
2840;SDS011;53423;49.224;12.074;2022-09-20T09:15:53;2.50;;;1.10;;
2840;SDS011;53423;49.224;12.074;2022-09-20T09:18:28;3.57;;;1.40;;
2840;SDS011;53423;49.224;12.074;2022-09-20T09:21:00;3.37;;;1.03;;
2840;SDS011;53423;49.224;12.074;2022-09-20T09:23:35;2.17;;;0.90;;
2840;SDS011;53423;49.224;12.074;2022-09-20T09:26:13;1.77;;;0.97;;
2840;SDS011;53423;49.224;12.074;2022-09-20T09:28:42;1.73;;;1.38;;
2840;SDS011;53423;49.224;12.074;2022-09-20T09:31:11;3.95;;;1.38;;
2840;SDS011;53423;49.224;12.074;2022-09-20T09:33:48;3.67;;;1.33;;
2840;SDS011;53423;49.224;12.074;2022-09-20T09:36:16;3.47;;;1.17;;
2840;SDS011;53423;49.224;12.074;2022-09-20T09:38:49;2.42;;;0.95;;
2840;SDS011;53423;49.224;12.074;2022-09-20T09:41:20;3.95;;;1.10;;
2840;SDS011;53423;49.224;12.074;2022-09-20T09:43:56;1.50;;;0.80;;
2840;SDS011;53423;49.224;12.074;2022-09-20T09:46:25;1.33;;;0.95;;
2840;SDS011;53423;49.224;12.074;2022-09-20T09:49:07;1.15;;;0.60;;
2840;SDS011;53423;49.224;12.074;2022-09-20T09:51:41;1.63;;;0.70;;
2840;SDS011;53423;49.224;12.074;2022-09-20T09:54:27;2.75;;;1.10;;
2840;SDS011;53423;49.224;12.074;2022-09-20T09:56:59;2.58;;;0.95;;
2840;SDS011;53423;49.224;12.074;2022-09-20T09:59:43;3.87;;;1.00;;
2840;SDS011;53423;49.224;12.074;2022-09-20T10:02:24;1.57;;;1.10;;
2840;SDS011;53423;49.224;12.074;2022-09-20T10:05:09;2.73;;;1.17;;
2840;SDS011;53423;49.224;12.074;2022-09-20T10:07:43;3.73;;;0.97;;
2840;SDS011;53423;49.224;12.074;2022-09-20T10:10:19;3.90;;;1.30;;
2840;SDS011;53423;49.224;12.074;2022-09-20T10:13:00;2.83;;;1.13;;
2840;SDS011;53423;49.224;12.074;2022-09-20T10:15:38;2.77;;;1.27;;
2840;SDS011;53423;49.224;12.074;2022-09-20T10:18:24;3.47;;;1.63;;
2840;SDS011;53423;49.224;12.074;2022-09-20T10:21:06;1.07;;;0.97;;
2840;SDS011;53423;49.224;12.074;2022-09-20T10:23:47;1.53;;;1.07;;
2840;SDS011;53423;49.224;12.074;2022-09-20T10:26:36;3.20;;;0.87;;
2840;SDS011;53423;49.224;12.074;2022-09-20T10:29:23;3.07;;;1.20;;
2840;SDS011;53423;49.224;12.074;2022-09-20T10:32:03;2.43;;;1.17;;
2840;SDS011;53423;49.224;12.074;2022-09-20T10:34:47;3.85;;;1.27;;
2840;SDS011;53423;49.224;12.074;2022-09-20T10:37:39;4.05;;;1.00;;
2840;SDS011;53423;49.224;12.074;2022-09-20T10:40:20;3.40;;;1.25;;
2840;SDS011;53423;49.224;12.074;2022-09-20T10:43:18;1.80;;;0.90;;
2840;SDS011;53423;49.224;12.074;2022-09-20T10:45:57;2.78;;;1.27;;
2840;SDS011;53423;49.224;12.074;2022-09-20T10:49:01;3.28;;;1.42;;
2840;SDS011;53423;49.224;12.074;2022-09-20T10:51:35;4.40;;;1.30;;
2840;SDS011;53423;49.224;12.074;2022-09-20T10:54:16;2.35;;;1.33;;
2840;SDS011;53423;49.224;12.074;2022-09-20T10:57:01;2.42;;;1.27;;
2840;SDS011;53423;49.224;12.074;2022-09-20T10:59:44;2.03;;;1.30;;
2840;SDS011;53423;49.224;12.074;2022-09-20T11:02:24;2.65;;;1.42;;
2840;SDS011;53423;49.224;12.074;2022-09-20T11:05:15;1.42;;;0.90;;
2840;SDS011;53423;49.224;12.074;2022-09-20T11:07:51;2.70;;;1.50;;
2840;SDS011;53423;49.224;12.074;2022-09-20T11:10:28;1.77;;;0.85;;
2840;SDS011;53423;49.224;12.074;2022-09-20T11:13:03;2.25;;;0.82;;
2840;SDS011;53423;49.224;12.074;2022-09-20T11:15:35;1.23;;;0.70;;
2840;SDS011;53423;49.224;12.074;2022-09-20T11:18:09;1.80;;;0.90;;
2840;SDS011;53423;49.224;12.074;2022-09-20T11:20:46;1.70;;;1.10;;
2840;SDS011;53423;49.224;12.074;2022-09-20T11:23:23;2.87;;;1.40;;
2840;SDS011;53423;49.224;12.074;2022-09-20T11:26:03;0.77;;;0.50;;
2840;SDS011;53423;49.224;12.074;2022-09-20T11:28:37;0.93;;;0.77;;
2840;SDS011;53423;49.224;12.074;2022-09-20T11:31:09;1.70;;;0.67;;
2840;SDS011;53423;49.224;12.074;2022-09-20T11:33:45;2.13;;;0.87;;
2840;SDS011;53423;49.224;12.074;2022-09-20T11:36:18;2.10;;;1.10;;
2840;SDS011;53423;49.224;12.074;2022-09-20T11:38:52;1.93;;;0.80;;
2840;SDS011;53423;49.224;12.074;2022-09-20T11:41:25;2.83;;;1.00;;
2840;SDS011;53423;49.224;12.074;2022-09-20T11:43:55;1.90;;;1.00;;
2840;SDS011;53423;49.224;12.074;2022-09-20T11:46:28;2.37;;;1.20;;
2840;SDS011;53423;49.224;12.074;2022-09-20T11:49:00;1.77;;;1.10;;
2840;SDS011;53423;49.224;12.074;2022-09-20T11:51:43;2.73;;;1.37;;
2840;SDS011;53423;49.224;12.074;2022-09-20T11:54:27;2.00;;;1.10;;
2840;SDS011;53423;49.224;12.074;2022-09-20T11:57:08;1.67;;;1.20;;
2840;SDS011;53423;49.224;12.074;2022-09-20T11:59:41;1.90;;;1.03;;
2840;SDS011;53423;49.224;12.074;2022-09-20T12:02:19;1.27;;;0.80;;
2840;SDS011;53423;49.224;12.074;2022-09-20T12:04:51;2.17;;;0.70;;
2840;SDS011;53423;49.224;12.074;2022-09-20T12:07:19;2.20;;;1.10;;
2840;SDS011;53423;49.224;12.074;2022-09-20T12:09:51;1.67;;;0.70;;
2840;SDS011;53423;49.224;12.074;2022-09-20T12:12:27;1.27;;;0.50;;
2840;SDS011;53423;49.224;12.074;2022-09-20T12:15:03;1.20;;;0.70;;
2840;SDS011;53423;49.224;12.074;2022-09-20T12:23:42;1.60;;;0.90;;
2840;SDS011;53423;49.224;12.074;2022-09-20T12:26:35;2.37;;;0.90;;
2840;SDS011;53423;49.224;12.074;2022-09-20T12:32:32;1.00;;;0.70;;
2840;SDS011;53423;49.224;12.074;2022-09-20T12:38:25;1.57;;;0.67;;
2840;SDS011;53423;49.224;12.074;2022-09-20T12:41:13;1.37;;;0.77;;
2840;SDS011;53423;49.224;12.074;2022-09-20T12:43:57;1.03;;;0.70;;
2840;SDS011;53423;49.224;12.074;2022-09-20T12:52:37;1.60;;;1.07;;
2840;SDS011;53423;49.224;12.074;2022-09-20T12:55:30;1.83;;;1.00;;
2840;SDS011;53423;49.224;12.074;2022-09-20T12:58:04;2.07;;;0.97;;
2840;SDS011;53423;49.224;12.074;2022-09-20T13:00:44;1.97;;;0.80;;
2840;SDS011;53423;49.224;12.074;2022-09-20T13:03:25;0.73;;;0.73;;
2840;SDS011;53423;49.224;12.074;2022-09-20T13:08:52;1.33;;;1.00;;
2840;SDS011;53423;49.224;12.074;2022-09-20T13:11:28;1.30;;;0.80;;
2840;SDS011;53423;49.224;12.074;2022-09-20T13:14:01;2.33;;;1.00;;
2840;SDS011;53423;49.224;12.074;2022-09-20T13:16:37;1.53;;;1.17;;
2840;SDS011;53423;49.224;12.074;2022-09-20T13:19:13;1.70;;;1.00;;
2840;SDS011;53423;49.224;12.074;2022-09-20T13:21:50;1.57;;;1.37;;
2840;SDS011;53423;49.224;12.074;2022-09-20T13:24:21;1.13;;;0.83;;
2840;SDS011;53423;49.224;12.074;2022-09-20T13:26:52;1.77;;;0.87;;
2840;SDS011;53423;49.224;12.074;2022-09-20T13:29:23;1.83;;;0.80;;
2840;SDS011;53423;49.224;12.074;2022-09-20T13:34:44;1.47;;;0.70;;
2840;SDS011;53423;49.224;12.074;2022-09-20T13:37:15;1.97;;;0.87;;
2840;SDS011;53423;49.224;12.074;2022-09-20T13:39:46;0.83;;;0.77;;
2840;SDS011;53423;49.224;12.074;2022-09-20T13:42:20;0.97;;;0.53;;
2840;SDS011;53423;49.224;12.074;2022-09-20T13:44:48;2.33;;;0.87;;
2840;SDS011;53423;49.224;12.074;2022-09-20T13:47:20;1.03;;;0.60;;
2840;SDS011;53423;49.224;12.074;2022-09-20T13:49:58;1.40;;;0.63;;
2840;SDS011;53423;49.224;12.074;2022-09-20T13:52:29;1.40;;;0.50;;
2840;SDS011;53423;49.224;12.074;2022-09-20T13:54:58;1.90;;;1.07;;
2840;SDS011;53423;49.224;12.074;2022-09-20T13:57:26;2.03;;;1.00;;
2840;SDS011;53423;49.224;12.074;2022-09-20T13:59:56;3.43;;;2.90;;
2840;SDS011;53423;49.224;12.074;2022-09-20T14:02:26;3.90;;;1.17;;
2840;SDS011;53423;49.224;12.074;2022-09-20T14:04:56;2.00;;;1.17;;
2840;SDS011;53423;49.224;12.074;2022-09-20T14:07:27;2.27;;;1.40;;
2840;SDS011;53423;49.224;12.074;2022-09-20T14:09:57;3.00;;;1.43;;
2840;SDS011;53423;49.224;12.074;2022-09-20T14:12:25;1.13;;;0.67;;
2840;SDS011;53423;49.224;12.074;2022-09-20T14:14:54;1.77;;;0.90;;
2840;SDS011;53423;49.224;12.074;2022-09-20T14:17:22;1.67;;;1.33;;
2840;SDS011;53423;49.224;12.074;2022-09-20T14:19:52;1.50;;;0.93;;
2840;SDS011;53423;49.224;12.074;2022-09-20T14:22:22;1.77;;;1.00;;
2840;SDS011;53423;49.224;12.074;2022-09-20T14:25:00;2.37;;;1.30;;
2840;SDS011;53423;49.224;12.074;2022-09-20T14:27:31;2.07;;;1.00;;
2840;SDS011;53423;49.224;12.074;2022-09-20T14:29:58;1.87;;;1.00;;
2840;SDS011;53423;49.224;12.074;2022-09-20T14:32:34;2.87;;;1.47;;
2840;SDS011;53423;49.224;12.074;2022-09-20T14:35:06;3.10;;;1.47;;
2840;SDS011;53423;49.224;12.074;2022-09-20T14:37:42;1.70;;;1.07;;
2840;SDS011;53423;49.224;12.074;2022-09-20T14:40:18;6.30;;;5.10;;
2840;SDS011;53423;49.224;12.074;2022-09-20T14:42:49;3.33;;;3.00;;
2840;SDS011;53423;49.224;12.074;2022-09-20T14:45:21;2.43;;;2.07;;
2840;SDS011;53423;49.224;12.074;2022-09-20T14:47:53;2.60;;;2.30;;
2840;SDS011;53423;49.224;12.074;2022-09-20T14:50:26;3.93;;;2.80;;
2840;SDS011;53423;49.224;12.074;2022-09-20T14:55:55;3.97;;;2.07;;
2840;SDS011;53423;49.224;12.074;2022-09-20T15:01:33;3.10;;;2.47;;
2840;SDS011;53423;49.224;12.074;2022-09-20T15:04:06;4.47;;;2.10;;
2840;SDS011;53423;49.224;12.074;2022-09-20T15:06:36;1.40;;;1.30;;
2840;SDS011;53423;49.224;12.074;2022-09-20T15:09:05;2.33;;;1.80;;
2840;SDS011;53423;49.224;12.074;2022-09-20T15:11:34;1.33;;;1.17;;
2840;SDS011;53423;49.224;12.074;2022-09-20T15:14:02;1.30;;;1.20;;
2840;SDS011;53423;49.224;12.074;2022-09-20T15:16:30;2.50;;;1.40;;
2840;SDS011;53423;49.224;12.074;2022-09-20T15:18:58;1.37;;;1.07;;
2840;SDS011;53423;49.224;12.074;2022-09-20T15:21:26;1.37;;;0.70;;
2840;SDS011;53423;49.224;12.074;2022-09-20T15:23:54;5.40;;;4.03;;
2840;SDS011;53423;49.224;12.074;2022-09-20T15:26:21;3.27;;;2.80;;
2840;SDS011;53423;49.224;12.074;2022-09-20T15:28:51;2.90;;;1.80;;
2840;SDS011;53423;49.224;12.074;2022-09-20T15:31:18;1.77;;;1.67;;
2840;SDS011;53423;49.224;12.074;2022-09-20T15:33:46;1.43;;;1.03;;
2840;SDS011;53423;49.224;12.074;2022-09-20T15:36:14;2.23;;;1.00;;
2840;SDS011;53423;49.224;12.074;2022-09-20T15:38:42;1.20;;;0.97;;
2840;SDS011;53423;49.224;12.074;2022-09-20T15:41:10;2.23;;;0.93;;
2840;SDS011;53423;49.224;12.074;2022-09-20T15:43:38;1.10;;;1.00;;
2840;SDS011;53423;49.224;12.074;2022-09-20T15:46:17;2.60;;;1.10;;
2840;SDS011;53423;49.224;12.074;2022-09-20T15:48:46;2.00;;;0.80;;
2840;SDS011;53423;49.224;12.074;2022-09-20T15:51:15;1.33;;;0.90;;
2840;SDS011;53423;49.224;12.074;2022-09-20T15:53:43;2.67;;;0.60;;
2840;SDS011;53423;49.224;12.074;2022-09-20T15:56:14;1.60;;;1.10;;
2840;SDS011;53423;49.224;12.074;2022-09-20T15:58:44;0.60;;;0.60;;
2840;SDS011;53423;49.224;12.074;2022-09-20T16:01:13;1.80;;;0.80;;
2840;SDS011;53423;49.224;12.074;2022-09-20T16:03:43;2.00;;;0.97;;
2840;SDS011;53423;49.224;12.074;2022-09-20T16:06:12;1.57;;;1.00;;
2840;SDS011;53423;49.224;12.074;2022-09-20T16:08:41;2.83;;;1.90;;
2840;SDS011;53423;49.224;12.074;2022-09-20T16:11:11;2.53;;;2.27;;
2840;SDS011;53423;49.224;12.074;2022-09-20T16:13:51;2.00;;;1.90;;
2840;SDS011;53423;49.224;12.074;2022-09-20T16:16:19;1.40;;;1.30;;
2840;SDS011;53423;49.224;12.074;2022-09-20T16:18:49;2.17;;;1.20;;
2840;SDS011;53423;49.224;12.074;2022-09-20T16:21:35;1.67;;;1.07;;
2840;SDS011;53423;49.224;12.074;2022-09-20T16:24:04;1.10;;;1.00;;
2840;SDS011;53423;49.224;12.074;2022-09-20T16:26:33;1.50;;;1.40;;
2840;SDS011;53423;49.224;12.074;2022-09-20T16:29:03;2.57;;;1.20;;
2840;SDS011;53423;49.224;12.074;2022-09-20T16:31:34;2.40;;;1.50;;
2840;SDS011;53423;49.224;12.074;2022-09-20T16:34:08;2.60;;;1.50;;
2840;SDS011;53423;49.224;12.074;2022-09-20T16:36:39;3.53;;;0.97;;